sensor_id;sensor_type;location;lat;lon;timestamp;temperature;humidity
29211;DHT22;16250;49.932;10.980;2022-10-30T00:00:24;13.50;99.90
29211;DHT22;16250;49.932;10.980;2022-10-30T00:02:50;13.50;99.90
29211;DHT22;16250;49.932;10.980;2022-10-30T00:05:16;13.50;99.90
29211;DHT22;16250;49.932;10.980;2022-10-30T00:07:42;13.50;99.90
29211;DHT22;16250;49.932;10.980;2022-10-30T00:10:08;13.40;99.90
29211;DHT22;16250;49.932;10.980;2022-10-30T00:12:34;13.40;99.90
29211;DHT22;16250;49.932;10.980;2022-10-30T00:15:00;13.40;99.90
29211;DHT22;16250;49.932;10.980;2022-10-30T00:17:26;13.30;99.90
29211;DHT22;16250;49.932;10.980;2022-10-30T00:19:51;13.20;99.90
29211;DHT22;16250;49.932;10.980;2022-10-30T00:22:17;13.10;99.90
29211;DHT22;16250;49.932;10.980;2022-10-30T00:24:42;13.20;99.90
29211;DHT22;16250;49.932;10.980;2022-10-30T00:27:08;13.20;99.90
29211;DHT22;16250;49.932;10.980;2022-10-30T00:29:34;13.10;99.90
29211;DHT22;16250;49.932;10.980;2022-10-30T00:31:59;13.00;99.90
29211;DHT22;16250;49.932;10.980;2022-10-30T00:34:25;13.00;99.90
29211;DHT22;16250;49.932;10.980;2022-10-30T00:36:50;13.00;99.90
29211;DHT22;16250;49.932;10.980;2022-10-30T00:39:16;13.00;99.90
29211;DHT22;16250;49.932;10.980;2022-10-30T00:41:41;13.00;99.90
29211;DHT22;16250;49.932;10.980;2022-10-30T00:44:30;13.00;99.90
29211;DHT22;16250;49.932;10.980;2022-10-30T00:46:58;13.00;99.90
29211;DHT22;16250;49.932;10.980;2022-10-30T00:49:32;12.90;99.90
29211;DHT22;16250;49.932;10.980;2022-10-30T00:52:00;12.90;99.90
29211;DHT22;16250;49.932;10.980;2022-10-30T00:54:27;12.90;99.90
29211;DHT22;16250;49.932;10.980;2022-10-30T00:56:53;12.90;99.90
29211;DHT22;16250;49.932;10.980;2022-10-30T00:59:22;12.90;99.90
29211;DHT22;16250;49.932;10.980;2022-10-30T01:01:49;13.00;99.90
29211;DHT22;16250;49.932;10.980;2022-10-30T01:04:16;12.90;99.90
29211;DHT22;16250;49.932;10.980;2022-10-30T01:06:44;13.00;99.90
29211;DHT22;16250;49.932;10.980;2022-10-30T01:09:13;13.00;99.90
29211;DHT22;16250;49.932;10.980;2022-10-30T01:11:39;13.00;99.90
29211;DHT22;16250;49.932;10.980;2022-10-30T01:14:06;13.10;99.90
29211;DHT22;16250;49.932;10.980;2022-10-30T01:19:53;13.00;99.90
29211;DHT22;16250;49.932;10.980;2022-10-30T01:22:38;13.10;99.90
29211;DHT22;16250;49.932;10.980;2022-10-30T01:30:59;13.20;99.90
29211;DHT22;16250;49.932;10.980;2022-10-30T01:36:32;13.10;99.90
29211;DHT22;16250;49.932;10.980;2022-10-30T01:39:10;13.20;99.90
29211;DHT22;16250;49.932;10.980;2022-10-30T01:41:36;13.10;99.90
29211;DHT22;16250;49.932;10.980;2022-10-30T01:44:06;12.90;99.90
29211;DHT22;16250;49.932;10.980;2022-10-30T01:52:41;12.90;99.90
29211;DHT22;16250;49.932;10.980;2022-10-30T01:56:04;12.90;99.90
29211;DHT22;16250;49.932;10.980;2022-10-30T01:58:40;13.00;99.90
29211;DHT22;16250;49.932;10.980;2022-10-30T02:01:08;13.00;99.90
29211;DHT22;16250;49.932;10.980;2022-10-30T02:03:35;13.00;99.90
29211;DHT22;16250;49.932;10.980;2022-10-30T02:06:00;13.40;99.90
29211;DHT22;16250;49.932;10.980;2022-10-30T02:08:26;13.20;99.90
29211;DHT22;16250;49.932;10.980;2022-10-30T02:10:52;13.20;99.90
29211;DHT22;16250;49.932;10.980;2022-10-30T02:13:19;13.30;99.90
29211;DHT22;16250;49.932;10.980;2022-10-30T02:15:46;13.30;99.90
29211;DHT22;16250;49.932;10.980;2022-10-30T02:18:12;13.30;99.90
29211;DHT22;16250;49.932;10.980;2022-10-30T02:20:38;13.30;99.90
29211;DHT22;16250;49.932;10.980;2022-10-30T02:23:04;13.30;99.90
29211;DHT22;16250;49.932;10.980;2022-10-30T02:25:30;13.30;99.90
29211;DHT22;16250;49.932;10.980;2022-10-30T02:27:56;13.30;99.90
29211;DHT22;16250;49.932;10.980;2022-10-30T02:30:22;13.30;99.90
29211;DHT22;16250;49.932;10.980;2022-10-30T02:32:48;13.20;99.90
29211;DHT22;16250;49.932;10.980;2022-10-30T02:35:13;13.30;99.90
29211;DHT22;16250;49.932;10.980;2022-10-30T02:37:39;13.20;99.90
29211;DHT22;16250;49.932;10.980;2022-10-30T02:40:05;13.10;99.90
29211;DHT22;16250;49.932;10.980;2022-10-30T02:42:33;13.00;99.90
29211;DHT22;16250;49.932;10.980;2022-10-30T02:44:58;13.20;99.90
29211;DHT22;16250;49.932;10.980;2022-10-30T02:47:24;13.10;99.90
29211;DHT22;16250;49.932;10.980;2022-10-30T02:49:49;13.10;99.90
29211;DHT22;16250;49.932;10.980;2022-10-30T02:52:15;13.10;99.90
29211;DHT22;16250;49.932;10.980;2022-10-30T02:54:40;12.70;99.90
29211;DHT22;16250;49.932;10.980;2022-10-30T02:57:07;12.70;99.90
29211;DHT22;16250;49.932;10.980;2022-10-30T02:59:33;12.70;99.90
29211;DHT22;16250;49.932;10.980;2022-10-30T03:01:58;12.80;99.90
29211;DHT22;16250;49.932;10.980;2022-10-30T03:04:24;12.80;99.90
29211;DHT22;16250;49.932;10.980;2022-10-30T03:06:49;12.90;99.90
29211;DHT22;16250;49.932;10.980;2022-10-30T03:09:15;12.60;99.90
29211;DHT22;16250;49.932;10.980;2022-10-30T03:11:40;12.50;99.90
29211;DHT22;16250;49.932;10.980;2022-10-30T03:14:08;12.40;99.90
29211;DHT22;16250;49.932;10.980;2022-10-30T03:16:35;12.50;99.90
29211;DHT22;16250;49.932;10.980;2022-10-30T03:19:01;12.40;99.90
29211;DHT22;16250;49.932;10.980;2022-10-30T03:21:27;12.50;99.90
29211;DHT22;16250;49.932;10.980;2022-10-30T03:23:53;12.50;99.90
29211;DHT22;16250;49.932;10.980;2022-10-30T03:26:19;12.50;99.90
29211;DHT22;16250;49.932;10.980;2022-10-30T03:28:45;12.50;99.90
29211;DHT22;16250;49.932;10.980;2022-10-30T03:31:14;12.60;99.90
29211;DHT22;16250;49.932;10.980;2022-10-30T03:33:40;12.60;99.90
29211;DHT22;16250;49.932;10.980;2022-10-30T03:36:08;12.60;99.90
29211;DHT22;16250;49.932;10.980;2022-10-30T03:38:35;12.60;99.90
29211;DHT22;16250;49.932;10.980;2022-10-30T03:41:00;12.70;99.90
29211;DHT22;16250;49.932;10.980;2022-10-30T03:43:26;12.60;99.90
29211;DHT22;16250;49.932;10.980;2022-10-30T03:45:53;12.70;99.90
29211;DHT22;16250;49.932;10.980;2022-10-30T03:48:21;12.70;99.90
29211;DHT22;16250;49.932;10.980;2022-10-30T03:50:47;12.70;99.90
29211;DHT22;16250;49.932;10.980;2022-10-30T03:53:13;12.80;99.90
29211;DHT22;16250;49.932;10.980;2022-10-30T03:55:39;12.80;99.90
29211;DHT22;16250;49.932;10.980;2022-10-30T03:58:05;12.60;99.90
29211;DHT22;16250;49.932;10.980;2022-10-30T04:00:31;12.70;99.90
29211;DHT22;16250;49.932;10.980;2022-10-30T04:02:58;12.70;99.90
29211;DHT22;16250;49.932;10.980;2022-10-30T04:05:24;12.60;99.90
29211;DHT22;16250;49.932;10.980;2022-10-30T04:07:58;12.60;99.90
29211;DHT22;16250;49.932;10.980;2022-10-30T04:10:25;12.60;99.90
29211;DHT22;16250;49.932;10.980;2022-10-30T04:12:51;12.50;99.90
29211;DHT22;16250;49.932;10.980;2022-10-30T04:15:17;12.40;99.90
29211;DHT22;16250;49.932;10.980;2022-10-30T04:17:50;12.40;99.90
29211;DHT22;16250;49.932;10.980;2022-10-30T04:20:17;12.40;99.90
29211;DHT22;16250;49.932;10.980;2022-10-30T04:22:42;12.40;99.90
29211;DHT22;16250;49.932;10.980;2022-10-30T04:25:08;12.30;99.90
29211;DHT22;16250;49.932;10.980;2022-10-30T04:27:44;12.40;99.90
29211;DHT22;16250;49.932;10.980;2022-10-30T04:30:11;12.40;99.90
29211;DHT22;16250;49.932;10.980;2022-10-30T04:32:45;12.30;99.90
29211;DHT22;16250;49.932;10.980;2022-10-30T04:35:10;12.30;99.90
29211;DHT22;16250;49.932;10.980;2022-10-30T04:37:36;12.30;99.90
29211;DHT22;16250;49.932;10.980;2022-10-30T04:40:01;12.30;99.90
29211;DHT22;16250;49.932;10.980;2022-10-30T04:42:28;12.30;99.90
29211;DHT22;16250;49.932;10.980;2022-10-30T04:44:53;12.40;99.90
29211;DHT22;16250;49.932;10.980;2022-10-30T04:47:19;12.30;99.90
29211;DHT22;16250;49.932;10.980;2022-10-30T04:49:44;12.40;99.90
29211;DHT22;16250;49.932;10.980;2022-10-30T04:52:10;12.30;99.90
29211;DHT22;16250;49.932;10.980;2022-10-30T04:54:35;12.30;99.90
29211;DHT22;16250;49.932;10.980;2022-10-30T04:57:01;12.40;99.90
29211;DHT22;16250;49.932;10.980;2022-10-30T04:59:26;12.20;99.90
29211;DHT22;16250;49.932;10.980;2022-10-30T05:01:52;12.00;99.90
29211;DHT22;16250;49.932;10.980;2022-10-30T05:04:17;12.00;99.90
29211;DHT22;16250;49.932;10.980;2022-10-30T05:06:43;11.80;99.90
29211;DHT22;16250;49.932;10.980;2022-10-30T05:09:08;11.80;99.90
29211;DHT22;16250;49.932;10.980;2022-10-30T05:11:34;11.90;99.90
29211;DHT22;16250;49.932;10.980;2022-10-30T05:13:59;11.90;99.90
29211;DHT22;16250;49.932;10.980;2022-10-30T05:16:25;11.70;99.90
29211;DHT22;16250;49.932;10.980;2022-10-30T05:18:50;11.80;99.90
29211;DHT22;16250;49.932;10.980;2022-10-30T05:21:16;11.90;99.90
29211;DHT22;16250;49.932;10.980;2022-10-30T05:23:41;12.00;99.90
29211;DHT22;16250;49.932;10.980;2022-10-30T05:26:07;11.90;99.90
29211;DHT22;16250;49.932;10.980;2022-10-30T05:28:32;11.90;99.90
29211;DHT22;16250;49.932;10.980;2022-10-30T05:30:58;11.80;99.90
29211;DHT22;16250;49.932;10.980;2022-10-30T05:33:24;11.80;99.90
29211;DHT22;16250;49.932;10.980;2022-10-30T05:35:49;12.00;99.90
29211;DHT22;16250;49.932;10.980;2022-10-30T05:38:15;12.00;99.90
29211;DHT22;16250;49.932;10.980;2022-10-30T05:40:40;11.90;99.90
29211;DHT22;16250;49.932;10.980;2022-10-30T05:43:06;11.90;99.90
29211;DHT22;16250;49.932;10.980;2022-10-30T05:45:31;11.80;99.90
29211;DHT22;16250;49.932;10.980;2022-10-30T05:47:59;11.70;99.90
29211;DHT22;16250;49.932;10.980;2022-10-30T05:50:26;11.70;99.90
29211;DHT22;16250;49.932;10.980;2022-10-30T05:53:03;11.80;99.90
29211;DHT22;16250;49.932;10.980;2022-10-30T05:55:29;11.80;99.90
29211;DHT22;16250;49.932;10.980;2022-10-30T05:58:00;11.70;99.90
29211;DHT22;16250;49.932;10.980;2022-10-30T06:00:27;11.60;99.90
29211;DHT22;16250;49.932;10.980;2022-10-30T06:03:01;11.70;99.90
29211;DHT22;16250;49.932;10.980;2022-10-30T06:05:29;11.70;99.90
29211;DHT22;16250;49.932;10.980;2022-10-30T06:07:55;11.80;99.90
29211;DHT22;16250;49.932;10.980;2022-10-30T06:10:22;11.80;99.90
29211;DHT22;16250;49.932;10.980;2022-10-30T06:13:01;11.90;99.90
29211;DHT22;16250;49.932;10.980;2022-10-30T06:15:28;11.90;99.90
29211;DHT22;16250;49.932;10.980;2022-10-30T06:17:54;11.80;99.90
29211;DHT22;16250;49.932;10.980;2022-10-30T06:20:22;11.80;99.90
29211;DHT22;16250;49.932;10.980;2022-10-30T06:22:59;12.00;99.90
29211;DHT22;16250;49.932;10.980;2022-10-30T06:25:26;12.20;99.90
29211;DHT22;16250;49.932;10.980;2022-10-30T06:27:52;11.90;99.90
29211;DHT22;16250;49.932;10.980;2022-10-30T06:30:18;11.70;99.90
29211;DHT22;16250;49.932;10.980;2022-10-30T06:32:44;11.30;99.90
29211;DHT22;16250;49.932;10.980;2022-10-30T06:35:10;11.20;99.90
29211;DHT22;16250;49.932;10.980;2022-10-30T06:37:35;11.40;99.90
29211;DHT22;16250;49.932;10.980;2022-10-30T06:40:05;11.40;99.90
29211;DHT22;16250;49.932;10.980;2022-10-30T06:42:31;11.40;99.90
29211;DHT22;16250;49.932;10.980;2022-10-30T06:44:56;11.50;99.90
29211;DHT22;16250;49.932;10.980;2022-10-30T06:47:22;11.50;99.90
29211;DHT22;16250;49.932;10.980;2022-10-30T06:49:47;11.30;99.90
29211;DHT22;16250;49.932;10.980;2022-10-30T06:52:13;11.30;99.90
29211;DHT22;16250;49.932;10.980;2022-10-30T06:54:38;11.40;99.90
29211;DHT22;16250;49.932;10.980;2022-10-30T06:57:04;11.40;99.90
29211;DHT22;16250;49.932;10.980;2022-10-30T06:59:29;11.50;99.90
29211;DHT22;16250;49.932;10.980;2022-10-30T07:01:55;11.60;99.90
29211;DHT22;16250;49.932;10.980;2022-10-30T07:04:21;11.80;99.90
29211;DHT22;16250;49.932;10.980;2022-10-30T07:06:46;11.80;99.90
29211;DHT22;16250;49.932;10.980;2022-10-30T07:09:12;11.80;99.90
29211;DHT22;16250;49.932;10.980;2022-10-30T07:11:37;11.90;99.90
29211;DHT22;16250;49.932;10.980;2022-10-30T07:14:06;11.90;99.90
29211;DHT22;16250;49.932;10.980;2022-10-30T07:16:32;11.90;99.90
29211;DHT22;16250;49.932;10.980;2022-10-30T07:18:57;12.00;99.90
29211;DHT22;16250;49.932;10.980;2022-10-30T07:21:25;12.10;99.90
29211;DHT22;16250;49.932;10.980;2022-10-30T07:23:50;12.10;99.90
29211;DHT22;16250;49.932;10.980;2022-10-30T07:26:16;12.10;99.90
29211;DHT22;16250;49.932;10.980;2022-10-30T07:28:42;12.10;99.90
29211;DHT22;16250;49.932;10.980;2022-10-30T07:31:07;12.20;99.90
29211;DHT22;16250;49.932;10.980;2022-10-30T07:33:33;12.30;99.90
29211;DHT22;16250;49.932;10.980;2022-10-30T07:36:02;12.30;99.90
29211;DHT22;16250;49.932;10.980;2022-10-30T07:38:27;12.20;99.90
29211;DHT22;16250;49.932;10.980;2022-10-30T07:40:53;12.10;99.90
29211;DHT22;16250;49.932;10.980;2022-10-30T07:43:19;12.00;99.90
29211;DHT22;16250;49.932;10.980;2022-10-30T07:45:45;12.00;99.90
29211;DHT22;16250;49.932;10.980;2022-10-30T07:48:10;12.00;99.90
29211;DHT22;16250;49.932;10.980;2022-10-30T07:50:36;12.10;99.90
29211;DHT22;16250;49.932;10.980;2022-10-30T07:53:02;12.20;99.90
29211;DHT22;16250;49.932;10.980;2022-10-30T07:55:27;12.30;99.90
29211;DHT22;16250;49.932;10.980;2022-10-30T07:57:53;12.30;99.90
29211;DHT22;16250;49.932;10.980;2022-10-30T08:00:19;12.50;99.90
29211;DHT22;16250;49.932;10.980;2022-10-30T08:02:48;12.60;99.90
29211;DHT22;16250;49.932;10.980;2022-10-30T08:05:14;12.70;99.90
29211;DHT22;16250;49.932;10.980;2022-10-30T08:07:40;12.70;99.90
29211;DHT22;16250;49.932;10.980;2022-10-30T08:10:07;12.80;99.90
29211;DHT22;16250;49.932;10.980;2022-10-30T08:12:33;12.90;99.90
29211;DHT22;16250;49.932;10.980;2022-10-30T08:14:59;13.00;99.90
29211;DHT22;16250;49.932;10.980;2022-10-30T08:17:24;13.10;99.90
29211;DHT22;16250;49.932;10.980;2022-10-30T08:19:50;13.30;99.90
29211;DHT22;16250;49.932;10.980;2022-10-30T08:22:15;13.30;99.90
29211;DHT22;16250;49.932;10.980;2022-10-30T08:24:41;13.40;99.90
29211;DHT22;16250;49.932;10.980;2022-10-30T08:27:08;13.50;99.90
29211;DHT22;16250;49.932;10.980;2022-10-30T08:29:34;13.60;99.90
29211;DHT22;16250;49.932;10.980;2022-10-30T08:31:59;13.70;99.90
29211;DHT22;16250;49.932;10.980;2022-10-30T08:34:25;13.80;99.90
29211;DHT22;16250;49.932;10.980;2022-10-30T08:36:52;13.80;99.90
29211;DHT22;16250;49.932;10.980;2022-10-30T08:39:18;13.80;99.90
29211;DHT22;16250;49.932;10.980;2022-10-30T08:41:44;13.80;99.90
29211;DHT22;16250;49.932;10.980;2022-10-30T08:44:09;13.70;99.90
29211;DHT22;16250;49.932;10.980;2022-10-30T08:46:35;13.80;99.90
29211;DHT22;16250;49.932;10.980;2022-10-30T08:49:01;13.90;99.90
29211;DHT22;16250;49.932;10.980;2022-10-30T08:51:27;13.90;99.90
29211;DHT22;16250;49.932;10.980;2022-10-30T08:53:52;13.90;99.90
29211;DHT22;16250;49.932;10.980;2022-10-30T08:56:18;14.20;99.90
29211;DHT22;16250;49.932;10.980;2022-10-30T08:58:43;14.10;99.90
29211;DHT22;16250;49.932;10.980;2022-10-30T09:01:10;14.10;99.90
29211;DHT22;16250;49.932;10.980;2022-10-30T09:03:35;14.20;99.90
29211;DHT22;16250;49.932;10.980;2022-10-30T09:06:03;14.10;99.90
29211;DHT22;16250;49.932;10.980;2022-10-30T09:08:29;14.40;99.90
29211;DHT22;16250;49.932;10.980;2022-10-30T09:10:57;14.80;99.90
29211;DHT22;16250;49.932;10.980;2022-10-30T09:13:24;14.50;99.90
29211;DHT22;16250;49.932;10.980;2022-10-30T09:15:50;14.60;99.90
29211;DHT22;16250;49.932;10.980;2022-10-30T09:18:16;14.80;99.90
29211;DHT22;16250;49.932;10.980;2022-10-30T09:20:41;14.80;99.90
29211;DHT22;16250;49.932;10.980;2022-10-30T09:23:07;15.00;99.90
29211;DHT22;16250;49.932;10.980;2022-10-30T09:25:33;15.10;99.90
29211;DHT22;16250;49.932;10.980;2022-10-30T09:27:58;15.20;99.90
29211;DHT22;16250;49.932;10.980;2022-10-30T09:30:24;15.10;99.90
29211;DHT22;16250;49.932;10.980;2022-10-30T09:32:58;15.10;99.90
29211;DHT22;16250;49.932;10.980;2022-10-30T09:35:24;15.20;99.90
29211;DHT22;16250;49.932;10.980;2022-10-30T09:37:49;15.50;99.90
29211;DHT22;16250;49.932;10.980;2022-10-30T09:46:21;15.90;99.90
29211;DHT22;16250;49.932;10.980;2022-10-30T09:51:48;16.40;99.90
29211;DHT22;16250;49.932;10.980;2022-10-30T09:57:42;16.60;99.90
29211;DHT22;16250;49.932;10.980;2022-10-30T10:00:14;16.70;99.90
29211;DHT22;16250;49.932;10.980;2022-10-30T10:05:23;16.90;99.90
29211;DHT22;16250;49.932;10.980;2022-10-30T10:07:57;16.90;99.90
29211;DHT22;16250;49.932;10.980;2022-10-30T10:10:45;17.00;99.90
29211;DHT22;16250;49.932;10.980;2022-10-30T10:16:18;17.20;99.90
29211;DHT22;16250;49.932;10.980;2022-10-30T10:21:24;17.30;99.90
29211;DHT22;16250;49.932;10.980;2022-10-30T10:23:52;17.30;99.90
29211;DHT22;16250;49.932;10.980;2022-10-30T10:33:43;17.40;99.90
29211;DHT22;16250;49.932;10.980;2022-10-30T10:39:00;17.50;99.90
29211;DHT22;16250;49.932;10.980;2022-10-30T10:44:45;17.60;99.90
29211;DHT22;16250;49.932;10.980;2022-10-30T10:50:23;17.80;99.90
29211;DHT22;16250;49.932;10.980;2022-10-30T10:53:00;18.00;99.90
29211;DHT22;16250;49.932;10.980;2022-10-30T10:55:34;18.00;99.90
29211;DHT22;16250;49.932;10.980;2022-10-30T10:58:33;17.80;99.90
29211;DHT22;16250;49.932;10.980;2022-10-30T11:01:04;17.70;99.90
29211;DHT22;16250;49.932;10.980;2022-10-30T11:06:31;17.90;99.90
29211;DHT22;16250;49.932;10.980;2022-10-30T11:09:11;18.00;99.90
29211;DHT22;16250;49.932;10.980;2022-10-30T11:11:37;18.00;99.90
29211;DHT22;16250;49.932;10.980;2022-10-30T11:14:15;18.20;99.90
29211;DHT22;16250;49.932;10.980;2022-10-30T11:19:34;18.20;99.90
29211;DHT22;16250;49.932;10.980;2022-10-30T11:22:00;18.20;99.90
29211;DHT22;16250;49.932;10.980;2022-10-30T11:24:35;18.30;99.90
29211;DHT22;16250;49.932;10.980;2022-10-30T11:29:54;18.40;99.90
29211;DHT22;16250;49.932;10.980;2022-10-30T11:32:21;18.50;99.90
29211;DHT22;16250;49.932;10.980;2022-10-30T11:35:12;18.50;99.90
29211;DHT22;16250;49.932;10.980;2022-10-30T11:37:40;18.60;99.90
29211;DHT22;16250;49.932;10.980;2022-10-30T11:42:59;18.70;99.90
29211;DHT22;16250;49.932;10.980;2022-10-30T11:47:58;18.90;99.90
29211;DHT22;16250;49.932;10.980;2022-10-30T11:50:29;19.00;99.90
29211;DHT22;16250;49.932;10.980;2022-10-30T11:52:59;19.30;99.90
29211;DHT22;16250;49.932;10.980;2022-10-30T11:55:35;19.20;99.90
29211;DHT22;16250;49.932;10.980;2022-10-30T11:58:05;19.30;99.90
29211;DHT22;16250;49.932;10.980;2022-10-30T12:00:34;19.20;99.90
29211;DHT22;16250;49.932;10.980;2022-10-30T12:03:00;19.40;99.90
29211;DHT22;16250;49.932;10.980;2022-10-30T12:13:19;19.40;99.90
29211;DHT22;16250;49.932;10.980;2022-10-30T12:15:47;19.40;99.90
29211;DHT22;16250;49.932;10.980;2022-10-30T12:18:23;19.40;99.90
29211;DHT22;16250;49.932;10.980;2022-10-30T12:20:53;19.40;99.90
29211;DHT22;16250;49.932;10.980;2022-10-30T12:23:22;19.50;99.90
29211;DHT22;16250;49.932;10.980;2022-10-30T12:26:09;19.50;99.90
29211;DHT22;16250;49.932;10.980;2022-10-30T12:28:37;19.40;99.90
29211;DHT22;16250;49.932;10.980;2022-10-30T12:36:16;19.40;99.90
29211;DHT22;16250;49.932;10.980;2022-10-30T12:38:48;19.40;99.90
29211;DHT22;16250;49.932;10.980;2022-10-30T12:41:28;19.60;99.90
29211;DHT22;16250;49.932;10.980;2022-10-30T12:46:32;19.50;99.90
29211;DHT22;16250;49.932;10.980;2022-10-30T12:51:40;19.60;99.90
29211;DHT22;16250;49.932;10.980;2022-10-30T12:57:36;19.70;99.90
29211;DHT22;16250;49.932;10.980;2022-10-30T13:00:12;19.60;99.90
29211;DHT22;16250;49.932;10.980;2022-10-30T13:05:51;19.70;99.90
29211;DHT22;16250;49.932;10.980;2022-10-30T13:08:28;19.70;99.90
29211;DHT22;16250;49.932;10.980;2022-10-30T13:11:12;20.00;99.90
29211;DHT22;16250;49.932;10.980;2022-10-30T13:13:44;20.00;99.90
29211;DHT22;16250;49.932;10.980;2022-10-30T13:16:19;20.10;99.90
29211;DHT22;16250;49.932;10.980;2022-10-30T13:18:46;20.10;99.90
29211;DHT22;16250;49.932;10.980;2022-10-30T13:21:28;20.00;99.90
29211;DHT22;16250;49.932;10.980;2022-10-30T13:24:11;20.00;99.90
29211;DHT22;16250;49.932;10.980;2022-10-30T13:26:46;20.00;99.90
29211;DHT22;16250;49.932;10.980;2022-10-30T13:29:19;19.90;99.90
29211;DHT22;16250;49.932;10.980;2022-10-30T13:31:56;19.90;99.90
29211;DHT22;16250;49.932;10.980;2022-10-30T13:34:38;20.00;99.90
29211;DHT22;16250;49.932;10.980;2022-10-30T13:37:29;19.90;99.90
29211;DHT22;16250;49.932;10.980;2022-10-30T13:48:10;20.10;99.90
29211;DHT22;16250;49.932;10.980;2022-10-30T13:53:18;20.20;99.90
29211;DHT22;16250;49.932;10.980;2022-10-30T13:55:46;20.10;99.90
29211;DHT22;16250;49.932;10.980;2022-10-30T13:58:21;20.20;99.90
29211;DHT22;16250;49.932;10.980;2022-10-30T14:04:19;20.30;99.90
29211;DHT22;16250;49.932;10.980;2022-10-30T14:06:43;20.50;99.90
29211;DHT22;16250;49.932;10.980;2022-10-30T14:09:18;20.50;99.90
29211;DHT22;16250;49.932;10.980;2022-10-30T14:11:45;20.20;99.90
29211;DHT22;16250;49.932;10.980;2022-10-30T14:14:27;20.40;99.90
29211;DHT22;16250;49.932;10.980;2022-10-30T14:22:31;19.90;99.90
29211;DHT22;16250;49.932;10.980;2022-10-30T14:24:57;19.90;99.90
29211;DHT22;16250;49.932;10.980;2022-10-30T14:27:31;19.90;99.90
29211;DHT22;16250;49.932;10.980;2022-10-30T14:29:57;20.10;99.90
29211;DHT22;16250;49.932;10.980;2022-10-30T14:37:16;20.10;99.90
29211;DHT22;16250;49.932;10.980;2022-10-30T14:39:46;20.00;99.90
29211;DHT22;16250;49.932;10.980;2022-10-30T14:42:29;20.20;99.90
29211;DHT22;16250;49.932;10.980;2022-10-30T14:58:42;19.80;99.90
29211;DHT22;16250;49.932;10.980;2022-10-30T15:10:00;19.60;99.90
29211;DHT22;16250;49.932;10.980;2022-10-30T15:15:13;19.50;99.90
29211;DHT22;16250;49.932;10.980;2022-10-30T15:17:50;19.40;99.90
29211;DHT22;16250;49.932;10.980;2022-10-30T15:20:22;19.30;99.90
29211;DHT22;16250;49.932;10.980;2022-10-30T15:23:01;19.20;99.90
29211;DHT22;16250;49.932;10.980;2022-10-30T15:25:33;19.10;99.90
29211;DHT22;16250;49.932;10.980;2022-10-30T15:27:59;18.80;99.90
29211;DHT22;16250;49.932;10.980;2022-10-30T15:30:26;18.70;99.90
29211;DHT22;16250;49.932;10.980;2022-10-30T15:32:52;18.60;99.90
29211;DHT22;16250;49.932;10.980;2022-10-30T15:35:26;18.80;99.90
29211;DHT22;16250;49.932;10.980;2022-10-30T15:38:10;18.30;99.90
29211;DHT22;16250;49.932;10.980;2022-10-30T15:40:39;18.20;99.90
29211;DHT22;16250;49.932;10.980;2022-10-30T15:43:06;18.10;99.90
29211;DHT22;16250;49.932;10.980;2022-10-30T15:45:39;17.90;99.90
29211;DHT22;16250;49.932;10.980;2022-10-30T15:48:32;17.90;99.90
29211;DHT22;16250;49.932;10.980;2022-10-30T15:51:04;17.60;99.90
29211;DHT22;16250;49.932;10.980;2022-10-30T15:53:42;17.30;99.90
29211;DHT22;16250;49.932;10.980;2022-10-30T15:56:28;17.30;99.90
29211;DHT22;16250;49.932;10.980;2022-10-30T15:59:03;16.90;99.90
29211;DHT22;16250;49.932;10.980;2022-10-30T16:01:42;17.00;99.90
29211;DHT22;16250;49.932;10.980;2022-10-30T16:04:19;16.90;99.90
29211;DHT22;16250;49.932;10.980;2022-10-30T16:06:51;16.70;99.90
29211;DHT22;16250;49.932;10.980;2022-10-30T16:09:17;16.70;99.90
29211;DHT22;16250;49.932;10.980;2022-10-30T16:11:44;16.40;99.90
29211;DHT22;16250;49.932;10.980;2022-10-30T16:14:15;16.50;99.90
29211;DHT22;16250;49.932;10.980;2022-10-30T16:16:43;16.40;99.90
29211;DHT22;16250;49.932;10.980;2022-10-30T16:19:22;16.30;99.90
29211;DHT22;16250;49.932;10.980;2022-10-30T16:21:50;16.20;99.90
29211;DHT22;16250;49.932;10.980;2022-10-30T16:24:16;16.30;99.90
29211;DHT22;16250;49.932;10.980;2022-10-30T16:26:42;16.00;99.90
29211;DHT22;16250;49.932;10.980;2022-10-30T16:31:44;15.80;99.90
29211;DHT22;16250;49.932;10.980;2022-10-30T16:34:29;15.80;99.90
29211;DHT22;16250;49.932;10.980;2022-10-30T16:37:02;15.70;99.90
29211;DHT22;16250;49.932;10.980;2022-10-30T16:39:30;15.60;99.90
29211;DHT22;16250;49.932;10.980;2022-10-30T16:41:57;15.60;99.90
29211;DHT22;16250;49.932;10.980;2022-10-30T16:44:27;15.50;99.90
29211;DHT22;16250;49.932;10.980;2022-10-30T16:49:34;15.40;99.90
29211;DHT22;16250;49.932;10.980;2022-10-30T16:52:05;15.30;99.90
29211;DHT22;16250;49.932;10.980;2022-10-30T16:54:39;15.30;99.90
29211;DHT22;16250;49.932;10.980;2022-10-30T16:57:34;15.10;99.90
29211;DHT22;16250;49.932;10.980;2022-10-30T17:00:03;15.10;99.90
29211;DHT22;16250;49.932;10.980;2022-10-30T17:02:31;15.00;99.90
29211;DHT22;16250;49.932;10.980;2022-10-30T17:07:55;14.90;99.90
29211;DHT22;16250;49.932;10.980;2022-10-30T17:15:59;14.80;99.90
29211;DHT22;16250;49.932;10.980;2022-10-30T17:18:35;14.90;99.90
29211;DHT22;16250;49.932;10.980;2022-10-30T17:23:31;14.60;99.90
29211;DHT22;16250;49.932;10.980;2022-10-30T17:25:56;14.60;99.90
29211;DHT22;16250;49.932;10.980;2022-10-30T17:28:33;14.40;99.90
29211;DHT22;16250;49.932;10.980;2022-10-30T17:31:18;14.50;99.90
29211;DHT22;16250;49.932;10.980;2022-10-30T17:33:45;14.50;99.90
29211;DHT22;16250;49.932;10.980;2022-10-30T17:36:11;14.40;99.90
29211;DHT22;16250;49.932;10.980;2022-10-30T17:38:37;14.30;99.90
29211;DHT22;16250;49.932;10.980;2022-10-30T17:41:04;14.40;99.90
29211;DHT22;16250;49.932;10.980;2022-10-30T17:43:33;14.40;99.90
29211;DHT22;16250;49.932;10.980;2022-10-30T17:45:59;14.30;99.90
29211;DHT22;16250;49.932;10.980;2022-10-30T17:48:26;14.30;99.90
29211;DHT22;16250;49.932;10.980;2022-10-30T17:50:53;14.30;99.90
29211;DHT22;16250;49.932;10.980;2022-10-30T17:53:23;14.20;99.90
29211;DHT22;16250;49.932;10.980;2022-10-30T17:55:59;14.10;99.90
29211;DHT22;16250;49.932;10.980;2022-10-30T17:58:25;14.10;99.90
29211;DHT22;16250;49.932;10.980;2022-10-30T18:00:51;14.10;99.90
29211;DHT22;16250;49.932;10.980;2022-10-30T18:03:16;14.10;99.90
29211;DHT22;16250;49.932;10.980;2022-10-30T18:05:42;14.10;99.90